Orchard Beach, Maryland
Current Conditions -  °F | °C
As of 4:54 PM on Monday 20 Oct 2014 (Local Time) from KBWI Reporting Station
Broken Clouds Broken Clouds  
Wind Chill: 65°   Ceiling: 20000
Heat Index: 65°   Visibility: 10mi
Dew Point: 44°   Wind: 3mph
Humidity: 47%   Direction: NA
Pressure: 29.94"   Gusts: NA
Location:  39.1918°N, 76.5466°W
Report Text: KBWI 202054Z VRB03KT 10SM FEW070 BKN200 18/07 A2994 RMK AO2 SLP139 T01830067 56015
Loading
Personal Weather Stations






























Interactive Weather Map
Tropical Storm Tracking
New forecast layout! Learn more

10-Day Weather Forecast

Advertisements
Track Severe Weather on mobile